sensor_id;sensor_type;location;lat;lon;timestamp;P1;durP1;ratioP1;P2;durP2;ratioP2
6372;SDS011;3219;51.362;7.074;2023-06-14T00:01:42;5.57;;;4.93;;
6372;SDS011;3219;51.362;7.074;2023-06-14T00:04:10;5.72;;;4.57;;
6372;SDS011;3219;51.362;7.074;2023-06-14T00:06:37;5.82;;;5.25;;
6372;SDS011;3219;51.362;7.074;2023-06-14T00:09:06;6.63;;;4.30;;
6372;SDS011;3219;51.362;7.074;2023-06-14T00:11:34;4.72;;;3.88;;
6372;SDS011;3219;51.362;7.074;2023-06-14T00:14:02;7.35;;;4.85;;
6372;SDS011;3219;51.362;7.074;2023-06-14T00:16:29;7.05;;;4.65;;
6372;SDS011;3219;51.362;7.074;2023-06-14T00:18:57;7.45;;;4.97;;
6372;SDS011;3219;51.362;7.074;2023-06-14T00:21:24;6.18;;;4.57;;
6372;SDS011;3219;51.362;7.074;2023-06-14T00:23:53;5.93;;;5.20;;
6372;SDS011;3219;51.362;7.074;2023-06-14T00:26:20;6.47;;;5.28;;
6372;SDS011;3219;51.362;7.074;2023-06-14T00:28:47;6.88;;;4.50;;
6372;SDS011;3219;51.362;7.074;2023-06-14T00:31:15;8.25;;;5.60;;
6372;SDS011;3219;51.362;7.074;2023-06-14T00:33:41;6.53;;;5.40;;
6372;SDS011;3219;51.362;7.074;2023-06-14T00:36:08;6.72;;;5.82;;
6372;SDS011;3219;51.362;7.074;2023-06-14T00:38:35;6.82;;;4.53;;
6372;SDS011;3219;51.362;7.074;2023-06-14T00:41:02;7.00;;;5.47;;
6372;SDS011;3219;51.362;7.074;2023-06-14T00:43:28;9.85;;;5.63;;
6372;SDS011;3219;51.362;7.074;2023-06-14T00:45:55;7.15;;;5.03;;
6372;SDS011;3219;51.362;7.074;2023-06-14T00:48:23;8.82;;;4.85;;
6372;SDS011;3219;51.362;7.074;2023-06-14T00:53:18;6.65;;;4.95;;
6372;SDS011;3219;51.362;7.074;2023-06-14T00:58:14;5.25;;;4.05;;
6372;SDS011;3219;51.362;7.074;2023-06-14T01:00:42;7.32;;;5.53;;
6372;SDS011;3219;51.362;7.074;2023-06-14T01:03:09;7.82;;;5.15;;
6372;SDS011;3219;51.362;7.074;2023-06-14T01:05:38;4.97;;;4.15;;
6372;SDS011;3219;51.362;7.074;2023-06-14T01:08:13;6.35;;;5.22;;
6372;SDS011;3219;51.362;7.074;2023-06-14T01:10:44;5.95;;;5.15;;
6372;SDS011;3219;51.362;7.074;2023-06-14T01:13:15;6.28;;;4.90;;
6372;SDS011;3219;51.362;7.074;2023-06-14T01:15:45;8.13;;;5.15;;
6372;SDS011;3219;51.362;7.074;2023-06-14T01:18:13;6.18;;;4.50;;
6372;SDS011;3219;51.362;7.074;2023-06-14T01:20:44;8.57;;;4.90;;
6372;SDS011;3219;51.362;7.074;2023-06-14T01:23:15;8.68;;;5.03;;
6372;SDS011;3219;51.362;7.074;2023-06-14T01:25:42;5.25;;;4.60;;
6372;SDS011;3219;51.362;7.074;2023-06-14T01:28:10;6.65;;;4.40;;
6372;SDS011;3219;51.362;7.074;2023-06-14T01:30:39;5.20;;;4.70;;
6372;SDS011;3219;51.362;7.074;2023-06-14T01:33:10;5.70;;;4.70;;
6372;SDS011;3219;51.362;7.074;2023-06-14T01:35:37;6.95;;;4.15;;
6372;SDS011;3219;51.362;7.074;2023-06-14T01:38:04;5.53;;;4.82;;
6372;SDS011;3219;51.362;7.074;2023-06-14T01:40:34;6.97;;;4.43;;
6372;SDS011;3219;51.362;7.074;2023-06-14T01:43:02;7.55;;;4.60;;
6372;SDS011;3219;51.362;7.074;2023-06-14T01:45:30;5.75;;;4.57;;
6372;SDS011;3219;51.362;7.074;2023-06-14T01:47:58;4.93;;;4.15;;
6372;SDS011;3219;51.362;7.074;2023-06-14T01:50:27;7.35;;;4.40;;
6372;SDS011;3219;51.362;7.074;2023-06-14T01:52:54;5.82;;;5.32;;
6372;SDS011;3219;51.362;7.074;2023-06-14T01:55:21;6.93;;;5.45;;
6372;SDS011;3219;51.362;7.074;2023-06-14T01:57:51;6.68;;;5.10;;
6372;SDS011;3219;51.362;7.074;2023-06-14T02:00:18;5.85;;;4.68;;
6372;SDS011;3219;51.362;7.074;2023-06-14T02:02:45;8.10;;;4.78;;
6372;SDS011;3219;51.362;7.074;2023-06-14T02:05:12;5.95;;;4.85;;
6372;SDS011;3219;51.362;7.074;2023-06-14T02:07:40;5.75;;;4.90;;
6372;SDS011;3219;51.362;7.074;2023-06-14T02:10:07;6.88;;;4.82;;
6372;SDS011;3219;51.362;7.074;2023-06-14T02:12:34;7.80;;;5.07;;
6372;SDS011;3219;51.362;7.074;2023-06-14T02:15:02;5.40;;;4.43;;
6372;SDS011;3219;51.362;7.074;2023-06-14T02:17:31;5.30;;;4.60;;
6372;SDS011;3219;51.362;7.074;2023-06-14T02:19:57;5.78;;;4.57;;
6372;SDS011;3219;51.362;7.074;2023-06-14T02:22:24;5.60;;;4.55;;
6372;SDS011;3219;51.362;7.074;2023-06-14T02:24:51;5.85;;;4.18;;
6372;SDS011;3219;51.362;7.074;2023-06-14T02:27:18;4.88;;;4.00;;
6372;SDS011;3219;51.362;7.074;2023-06-14T02:29:45;6.05;;;4.80;;
6372;SDS011;3219;51.362;7.074;2023-06-14T02:32:13;6.72;;;4.22;;
6372;SDS011;3219;51.362;7.074;2023-06-14T02:34:39;5.38;;;4.88;;
6372;SDS011;3219;51.362;7.074;2023-06-14T02:37:06;5.32;;;4.78;;
6372;SDS011;3219;51.362;7.074;2023-06-14T02:39:33;7.30;;;4.53;;
6372;SDS011;3219;51.362;7.074;2023-06-14T02:42:00;6.10;;;4.90;;
6372;SDS011;3219;51.362;7.074;2023-06-14T02:44:26;5.68;;;4.35;;
6372;SDS011;3219;51.362;7.074;2023-06-14T02:46:53;4.80;;;4.00;;
6372;SDS011;3219;51.362;7.074;2023-06-14T02:49:22;5.63;;;4.20;;
6372;SDS011;3219;51.362;7.074;2023-06-14T02:51:49;6.72;;;4.30;;
6372;SDS011;3219;51.362;7.074;2023-06-14T02:54:16;5.78;;;4.90;;
6372;SDS011;3219;51.362;7.074;2023-06-14T02:56:43;7.40;;;5.35;;
6372;SDS011;3219;51.362;7.074;2023-06-14T02:59:11;8.00;;;4.80;;
6372;SDS011;3219;51.362;7.074;2023-06-14T03:01:40;4.78;;;4.28;;
6372;SDS011;3219;51.362;7.074;2023-06-14T03:04:10;5.47;;;4.97;;
6372;SDS011;3219;51.362;7.074;2023-06-14T03:09:10;7.07;;;3.85;;
6372;SDS011;3219;51.362;7.074;2023-06-14T03:11:37;9.07;;;5.15;;
6372;SDS011;3219;51.362;7.074;2023-06-14T03:14:04;7.50;;;5.03;;
6372;SDS011;3219;51.362;7.074;2023-06-14T03:16:33;6.53;;;5.15;;
6372;SDS011;3219;51.362;7.074;2023-06-14T03:19:00;5.85;;;4.90;;
6372;SDS011;3219;51.362;7.074;2023-06-14T03:21:27;5.88;;;4.75;;
6372;SDS011;3219;51.362;7.074;2023-06-14T03:23:55;5.13;;;4.63;;
6372;SDS011;3219;51.362;7.074;2023-06-14T03:26:23;6.40;;;4.40;;
6372;SDS011;3219;51.362;7.074;2023-06-14T03:28:50;5.78;;;4.25;;
6372;SDS011;3219;51.362;7.074;2023-06-14T03:31:17;6.57;;;4.43;;
6372;SDS011;3219;51.362;7.074;2023-06-14T03:33:45;5.80;;;4.82;;
6372;SDS011;3219;51.362;7.074;2023-06-14T03:36:11;9.02;;;5.20;;
6372;SDS011;3219;51.362;7.074;2023-06-14T03:38:38;8.68;;;4.75;;
6372;SDS011;3219;51.362;7.074;2023-06-14T03:41:05;5.53;;;5.03;;
6372;SDS011;3219;51.362;7.074;2023-06-14T03:43:33;5.68;;;4.50;;
6372;SDS011;3219;51.362;7.074;2023-06-14T03:46:00;5.72;;;5.18;;
6372;SDS011;3219;51.362;7.074;2023-06-14T03:48:27;6.80;;;4.93;;
6372;SDS011;3219;51.362;7.074;2023-06-14T03:50:54;5.30;;;4.80;;
6372;SDS011;3219;51.362;7.074;2023-06-14T03:53:21;4.88;;;4.38;;
6372;SDS011;3219;51.362;7.074;2023-06-14T03:55:49;5.28;;;4.65;;
6372;SDS011;3219;51.362;7.074;2023-06-14T03:58:17;6.63;;;4.45;;
6372;SDS011;3219;51.362;7.074;2023-06-14T04:00:45;4.68;;;3.97;;
6372;SDS011;3219;51.362;7.074;2023-06-14T04:03:12;8.07;;;4.53;;
6372;SDS011;3219;51.362;7.074;2023-06-14T04:05:40;5.20;;;4.70;;
6372;SDS011;3219;51.362;7.074;2023-06-14T04:08:07;4.22;;;3.75;;
6372;SDS011;3219;51.362;7.074;2023-06-14T04:10:35;5.93;;;3.92;;
6372;SDS011;3219;51.362;7.074;2023-06-14T04:13:03;5.75;;;4.60;;
6372;SDS011;3219;51.362;7.074;2023-06-14T04:15:32;4.93;;;4.10;;
6372;SDS011;3219;51.362;7.074;2023-06-14T04:18:02;5.97;;;4.28;;
6372;SDS011;3219;51.362;7.074;2023-06-14T04:20:29;7.03;;;4.22;;
6372;SDS011;3219;51.362;7.074;2023-06-14T04:22:56;4.43;;;3.83;;
6372;SDS011;3219;51.362;7.074;2023-06-14T04:25:23;5.78;;;3.83;;
6372;SDS011;3219;51.362;7.074;2023-06-14T04:27:50;5.50;;;4.22;;
6372;SDS011;3219;51.362;7.074;2023-06-14T04:30:18;6.10;;;4.63;;
6372;SDS011;3219;51.362;7.074;2023-06-14T04:32:46;4.40;;;3.33;;
6372;SDS011;3219;51.362;7.074;2023-06-14T04:35:21;5.40;;;3.92;;
6372;SDS011;3219;51.362;7.074;2023-06-14T04:37:48;3.97;;;3.42;;
6372;SDS011;3219;51.362;7.074;2023-06-14T04:40:15;6.07;;;4.18;;
6372;SDS011;3219;51.362;7.074;2023-06-14T04:42:42;5.28;;;3.25;;
6372;SDS011;3219;51.362;7.074;2023-06-14T04:45:11;7.00;;;3.63;;
6372;SDS011;3219;51.362;7.074;2023-06-14T04:47:37;6.82;;;4.13;;
6372;SDS011;3219;51.362;7.074;2023-06-14T04:50:05;6.85;;;3.92;;
6372;SDS011;3219;51.362;7.074;2023-06-14T04:52:33;5.70;;;3.90;;
6372;SDS011;3219;51.362;7.074;2023-06-14T04:55:00;4.72;;;3.33;;
6372;SDS011;3219;51.362;7.074;2023-06-14T04:57:27;4.15;;;3.25;;
6372;SDS011;3219;51.362;7.074;2023-06-14T04:59:56;4.57;;;3.65;;
6372;SDS011;3219;51.362;7.074;2023-06-14T05:02:26;4.70;;;3.60;;
6372;SDS011;3219;51.362;7.074;2023-06-14T05:04:55;5.18;;;3.75;;
6372;SDS011;3219;51.362;7.074;2023-06-14T05:07:24;4.97;;;4.28;;
6372;SDS011;3219;51.362;7.074;2023-06-14T05:09:52;4.82;;;4.20;;
6372;SDS011;3219;51.362;7.074;2023-06-14T05:12:19;5.60;;;3.97;;
6372;SDS011;3219;51.362;7.074;2023-06-14T05:14:46;5.55;;;4.05;;
6372;SDS011;3219;51.362;7.074;2023-06-14T05:17:13;5.43;;;3.55;;
6372;SDS011;3219;51.362;7.074;2023-06-14T05:19:42;5.03;;;4.50;;
6372;SDS011;3219;51.362;7.074;2023-06-14T05:22:09;5.72;;;4.07;;
6372;SDS011;3219;51.362;7.074;2023-06-14T05:24:36;4.60;;;3.30;;
6372;SDS011;3219;51.362;7.074;2023-06-14T05:27:04;6.47;;;4.18;;
6372;SDS011;3219;51.362;7.074;2023-06-14T05:29:32;4.20;;;3.50;;
6372;SDS011;3219;51.362;7.074;2023-06-14T05:31:59;5.43;;;3.92;;
6372;SDS011;3219;51.362;7.074;2023-06-14T05:34:27;4.30;;;3.13;;
6372;SDS011;3219;51.362;7.074;2023-06-14T05:36:56;4.20;;;3.40;;
6372;SDS011;3219;51.362;7.074;2023-06-14T05:39:23;4.97;;;3.75;;
6372;SDS011;3219;51.362;7.074;2023-06-14T05:41:51;5.70;;;4.47;;
6372;SDS011;3219;51.362;7.074;2023-06-14T05:44:19;6.13;;;4.15;;
6372;SDS011;3219;51.362;7.074;2023-06-14T05:46:46;6.22;;;3.75;;
6372;SDS011;3219;51.362;7.074;2023-06-14T05:49:13;7.45;;;3.45;;
6372;SDS011;3219;51.362;7.074;2023-06-14T05:51:40;5.03;;;3.67;;
6372;SDS011;3219;51.362;7.074;2023-06-14T05:54:07;5.80;;;3.95;;
6372;SDS011;3219;51.362;7.074;2023-06-14T05:56:34;5.60;;;3.25;;
6372;SDS011;3219;51.362;7.074;2023-06-14T05:59:01;3.72;;;3.42;;
6372;SDS011;3219;51.362;7.074;2023-06-14T06:01:30;6.57;;;3.40;;
6372;SDS011;3219;51.362;7.074;2023-06-14T06:03:58;5.93;;;3.40;;
6372;SDS011;3219;51.362;7.074;2023-06-14T06:06:26;4.30;;;2.80;;
6372;SDS011;3219;51.362;7.074;2023-06-14T06:08:53;6.93;;;3.03;;
6372;SDS011;3219;51.362;7.074;2023-06-14T06:11:20;6.93;;;3.50;;
6372;SDS011;3219;51.362;7.074;2023-06-14T06:13:47;5.53;;;4.32;;
6372;SDS011;3219;51.362;7.074;2023-06-14T06:16:15;5.20;;;3.28;;
6372;SDS011;3219;51.362;7.074;2023-06-14T06:18:44;4.68;;;2.70;;
6372;SDS011;3219;51.362;7.074;2023-06-14T06:21:11;5.47;;;3.60;;
6372;SDS011;3219;51.362;7.074;2023-06-14T06:23:38;9.05;;;4.05;;
6372;SDS011;3219;51.362;7.074;2023-06-14T06:26:05;4.80;;;3.78;;
6372;SDS011;3219;51.362;7.074;2023-06-14T06:28:32;4.95;;;3.17;;
6372;SDS011;3219;51.362;7.074;2023-06-14T06:30:59;4.70;;;3.70;;
6372;SDS011;3219;51.362;7.074;2023-06-14T06:33:26;6.10;;;3.42;;
6372;SDS011;3219;51.362;7.074;2023-06-14T06:35:56;6.78;;;3.25;;
6372;SDS011;3219;51.362;7.074;2023-06-14T06:38:23;5.63;;;3.10;;
6372;SDS011;3219;51.362;7.074;2023-06-14T06:40:50;6.22;;;3.70;;
6372;SDS011;3219;51.362;7.074;2023-06-14T06:43:19;3.70;;;3.17;;
6372;SDS011;3219;51.362;7.074;2023-06-14T06:45:46;4.00;;;2.80;;
6372;SDS011;3219;51.362;7.074;2023-06-14T06:48:13;4.55;;;2.13;;
6372;SDS011;3219;51.362;7.074;2023-06-14T06:50:40;3.42;;;2.13;;
6372;SDS011;3219;51.362;7.074;2023-06-14T06:53:09;3.90;;;2.47;;
6372;SDS011;3219;51.362;7.074;2023-06-14T06:55:36;4.85;;;2.50;;
6372;SDS011;3219;51.362;7.074;2023-06-14T06:58:03;5.28;;;2.08;;
6372;SDS011;3219;51.362;7.074;2023-06-14T07:00:30;3.30;;;2.00;;
6372;SDS011;3219;51.362;7.074;2023-06-14T07:02:57;3.08;;;2.00;;
6372;SDS011;3219;51.362;7.074;2023-06-14T07:05:25;4.95;;;2.03;;
6372;SDS011;3219;51.362;7.074;2023-06-14T07:07:52;2.88;;;1.80;;
6372;SDS011;3219;51.362;7.074;2023-06-14T07:10:20;1.83;;;1.63;;
6372;SDS011;3219;51.362;7.074;2023-06-14T07:12:49;2.67;;;1.48;;
6372;SDS011;3219;51.362;7.074;2023-06-14T07:15:16;2.78;;;1.20;;
6372;SDS011;3219;51.362;7.074;2023-06-14T07:17:43;2.50;;;1.70;;
6372;SDS011;3219;51.362;7.074;2023-06-14T07:20:10;2.55;;;2.35;;
6372;SDS011;3219;51.362;7.074;2023-06-14T07:22:39;3.08;;;1.75;;
6372;SDS011;3219;51.362;7.074;2023-06-14T07:25:07;1.88;;;1.45;;
6372;SDS011;3219;51.362;7.074;2023-06-14T07:27:35;2.03;;;1.40;;
6372;SDS011;3219;51.362;7.074;2023-06-14T07:30:02;3.50;;;1.60;;
6372;SDS011;3219;51.362;7.074;2023-06-14T07:32:30;2.25;;;1.48;;
6372;SDS011;3219;51.362;7.074;2023-06-14T07:34:56;1.90;;;1.55;;
6372;SDS011;3219;51.362;7.074;2023-06-14T07:37:23;2.67;;;1.63;;
6372;SDS011;3219;51.362;7.074;2023-06-14T07:39:50;2.20;;;1.60;;
6372;SDS011;3219;51.362;7.074;2023-06-14T07:42:17;2.55;;;1.45;;
6372;SDS011;3219;51.362;7.074;2023-06-14T07:44:45;3.45;;;1.30;;
6372;SDS011;3219;51.362;7.074;2023-06-14T07:47:11;1.60;;;1.10;;
6372;SDS011;3219;51.362;7.074;2023-06-14T07:49:38;3.08;;;2.00;;
6372;SDS011;3219;51.362;7.074;2023-06-14T07:52:05;2.85;;;1.92;;
6372;SDS011;3219;51.362;7.074;2023-06-14T07:54:32;2.60;;;1.98;;
6372;SDS011;3219;51.362;7.074;2023-06-14T07:56:59;5.40;;;1.73;;
6372;SDS011;3219;51.362;7.074;2023-06-14T07:59:26;4.28;;;1.85;;
6372;SDS011;3219;51.362;7.074;2023-06-14T08:01:54;3.25;;;2.15;;
6372;SDS011;3219;51.362;7.074;2023-06-14T08:04:20;2.38;;;1.90;;
6372;SDS011;3219;51.362;7.074;2023-06-14T08:06:47;2.70;;;1.58;;
6372;SDS011;3219;51.362;7.074;2023-06-14T08:09:14;3.13;;;1.88;;
6372;SDS011;3219;51.362;7.074;2023-06-14T08:11:41;3.13;;;2.60;;
6372;SDS011;3219;51.362;7.074;2023-06-14T08:14:08;2.80;;;1.52;;
6372;SDS011;3219;51.362;7.074;2023-06-14T08:16:35;3.58;;;1.80;;
6372;SDS011;3219;51.362;7.074;2023-06-14T08:19:03;2.42;;;1.75;;
6372;SDS011;3219;51.362;7.074;2023-06-14T08:21:30;2.47;;;1.77;;
6372;SDS011;3219;51.362;7.074;2023-06-14T08:23:58;2.83;;;1.65;;
6372;SDS011;3219;51.362;7.074;2023-06-14T08:26:25;3.90;;;2.13;;
6372;SDS011;3219;51.362;7.074;2023-06-14T08:28:54;2.85;;;1.58;;
6372;SDS011;3219;51.362;7.074;2023-06-14T08:31:20;2.15;;;1.63;;
6372;SDS011;3219;51.362;7.074;2023-06-14T08:33:48;2.63;;;1.88;;
6372;SDS011;3219;51.362;7.074;2023-06-14T08:36:17;1.80;;;1.52;;
6372;SDS011;3219;51.362;7.074;2023-06-14T08:38:44;2.30;;;1.67;;
6372;SDS011;3219;51.362;7.074;2023-06-14T08:41:12;3.28;;;2.20;;
6372;SDS011;3219;51.362;7.074;2023-06-14T08:43:48;2.00;;;1.67;;
6372;SDS011;3219;51.362;7.074;2023-06-14T08:46:17;6.30;;;2.30;;
6372;SDS011;3219;51.362;7.074;2023-06-14T08:48:46;3.55;;;1.70;;
6372;SDS011;3219;51.362;7.074;2023-06-14T08:51:14;2.85;;;1.25;;
6372;SDS011;3219;51.362;7.074;2023-06-14T08:53:46;1.50;;;1.08;;
6372;SDS011;3219;51.362;7.074;2023-06-14T08:56:18;2.58;;;1.48;;
6372;SDS011;3219;51.362;7.074;2023-06-14T09:01:13;3.75;;;1.90;;
6372;SDS011;3219;51.362;7.074;2023-06-14T09:03:42;2.20;;;1.23;;
6372;SDS011;3219;51.362;7.074;2023-06-14T09:06:09;2.55;;;1.55;;
6372;SDS011;3219;51.362;7.074;2023-06-14T09:08:41;2.65;;;1.98;;
6372;SDS011;3219;51.362;7.074;2023-06-14T09:11:10;3.10;;;1.83;;
6372;SDS011;3219;51.362;7.074;2023-06-14T09:13:38;2.75;;;1.77;;
6372;SDS011;3219;51.362;7.074;2023-06-14T09:16:05;1.60;;;1.50;;
6372;SDS011;3219;51.362;7.074;2023-06-14T09:18:34;2.97;;;1.55;;
6372;SDS011;3219;51.362;7.074;2023-06-14T09:21:01;4.15;;;1.58;;
6372;SDS011;3219;51.362;7.074;2023-06-14T09:23:28;3.25;;;1.55;;
6372;SDS011;3219;51.362;7.074;2023-06-14T09:25:56;2.13;;;1.42;;
6372;SDS011;3219;51.362;7.074;2023-06-14T09:28:26;2.50;;;1.50;;
6372;SDS011;3219;51.362;7.074;2023-06-14T09:30:54;2.67;;;1.23;;
6372;SDS011;3219;51.362;7.074;2023-06-14T09:33:21;4.07;;;1.73;;
6372;SDS011;3219;51.362;7.074;2023-06-14T09:35:50;2.90;;;1.55;;
6372;SDS011;3219;51.362;7.074;2023-06-14T09:38:17;1.80;;;1.45;;
6372;SDS011;3219;51.362;7.074;2023-06-14T09:40:45;1.60;;;1.50;;
6372;SDS011;3219;51.362;7.074;2023-06-14T09:43:13;1.75;;;1.20;;
6372;SDS011;3219;51.362;7.074;2023-06-14T09:45:40;2.22;;;1.15;;
6372;SDS011;3219;51.362;7.074;2023-06-14T09:48:10;2.83;;;1.42;;
6372;SDS011;3219;51.362;7.074;2023-06-14T09:50:42;1.85;;;1.20;;
6372;SDS011;3219;51.362;7.074;2023-06-14T09:53:11;2.90;;;0.95;;
6372;SDS011;3219;51.362;7.074;2023-06-14T09:55:38;1.48;;;1.20;;
6372;SDS011;3219;51.362;7.074;2023-06-14T09:58:07;2.28;;;0.82;;
6372;SDS011;3219;51.362;7.074;2023-06-14T10:00:36;5.43;;;1.55;;
6372;SDS011;3219;51.362;7.074;2023-06-14T10:03:06;2.75;;;1.30;;
6372;SDS011;3219;51.362;7.074;2023-06-14T10:05:39;2.10;;;1.42;;
6372;SDS011;3219;51.362;7.074;2023-06-14T10:08:10;2.10;;;1.08;;
6372;SDS011;3219;51.362;7.074;2023-06-14T10:10:40;2.58;;;1.50;;
6372;SDS011;3219;51.362;7.074;2023-06-14T10:13:09;1.70;;;1.02;;
6372;SDS011;3219;51.362;7.074;2023-06-14T10:15:41;2.92;;;1.08;;
6372;SDS011;3219;51.362;7.074;2023-06-14T10:18:16;1.48;;;0.80;;
6372;SDS011;3219;51.362;7.074;2023-06-14T10:20:49;1.80;;;1.10;;
6372;SDS011;3219;51.362;7.074;2023-06-14T10:23:20;1.73;;;1.25;;
6372;SDS011;3219;51.362;7.074;2023-06-14T10:25:49;2.85;;;1.30;;
6372;SDS011;3219;51.362;7.074;2023-06-14T10:28:18;1.70;;;1.00;;
6372;SDS011;3219;51.362;7.074;2023-06-14T10:33:48;3.20;;;1.58;;
6372;SDS011;3219;51.362;7.074;2023-06-14T10:36:28;2.38;;;1.42;;
6372;SDS011;3219;51.362;7.074;2023-06-14T10:38:58;2.95;;;1.17;;
6372;SDS011;3219;51.362;7.074;2023-06-14T10:41:26;1.63;;;1.52;;
6372;SDS011;3219;51.362;7.074;2023-06-14T10:46:44;6.13;;;0.90;;
6372;SDS011;3219;51.362;7.074;2023-06-14T10:49:12;2.05;;;1.38;;
6372;SDS011;3219;51.362;7.074;2023-06-14T10:51:44;1.55;;;1.40;;
6372;SDS011;3219;51.362;7.074;2023-06-14T10:54:12;2.00;;;1.10;;
6372;SDS011;3219;51.362;7.074;2023-06-14T10:56:44;2.70;;;1.88;;
6372;SDS011;3219;51.362;7.074;2023-06-14T10:59:12;1.50;;;0.93;;
6372;SDS011;3219;51.362;7.074;2023-06-14T11:01:40;2.38;;;1.92;;
6372;SDS011;3219;51.362;7.074;2023-06-14T11:04:27;1.02;;;0.93;;
6372;SDS011;3219;51.362;7.074;2023-06-14T11:07:24;1.80;;;1.25;;
6372;SDS011;3219;51.362;7.074;2023-06-14T11:10:10;3.10;;;1.38;;
6372;SDS011;3219;51.362;7.074;2023-06-14T11:12:47;1.73;;;1.42;;
6372;SDS011;3219;51.362;7.074;2023-06-14T11:15:14;1.20;;;1.10;;
6372;SDS011;3219;51.362;7.074;2023-06-14T11:17:50;2.53;;;1.13;;
6372;SDS011;3219;51.362;7.074;2023-06-14T11:20:19;2.17;;;0.80;;
6372;SDS011;3219;51.362;7.074;2023-06-14T11:22:47;1.55;;;1.35;;
6372;SDS011;3219;51.362;7.074;2023-06-14T11:25:14;2.80;;;1.52;;
6372;SDS011;3219;51.362;7.074;2023-06-14T11:27:41;2.03;;;1.02;;
6372;SDS011;3219;51.362;7.074;2023-06-14T11:30:09;2.42;;;0.90;;
6372;SDS011;3219;51.362;7.074;2023-06-14T11:32:36;3.50;;;1.65;;
6372;SDS011;3219;51.362;7.074;2023-06-14T11:35:05;2.33;;;1.08;;
6372;SDS011;3219;51.362;7.074;2023-06-14T11:37:33;2.97;;;1.02;;
6372;SDS011;3219;51.362;7.074;2023-06-14T11:39:59;1.77;;;1.42;;
6372;SDS011;3219;51.362;7.074;2023-06-14T11:42:28;2.28;;;1.05;;
6372;SDS011;3219;51.362;7.074;2023-06-14T11:44:55;3.00;;;1.52;;
6372;SDS011;3219;51.362;7.074;2023-06-14T11:47:22;2.03;;;1.30;;
6372;SDS011;3219;51.362;7.074;2023-06-14T11:49:49;2.28;;;1.35;;
6372;SDS011;3219;51.362;7.074;2023-06-14T11:52:18;1.65;;;1.10;;
6372;SDS011;3219;51.362;7.074;2023-06-14T11:54:44;1.90;;;0.93;;
6372;SDS011;3219;51.362;7.074;2023-06-14T11:57:14;1.38;;;1.27;;
6372;SDS011;3219;51.362;7.074;2023-06-14T11:59:41;1.75;;;1.02;;
6372;SDS011;3219;51.362;7.074;2023-06-14T12:02:09;1.83;;;1.35;;
6372;SDS011;3219;51.362;7.074;2023-06-14T12:04:40;2.33;;;1.17;;
6372;SDS011;3219;51.362;7.074;2023-06-14T12:07:10;1.83;;;1.73;;
6372;SDS011;3219;51.362;7.074;2023-06-14T12:09:41;1.75;;;1.15;;
6372;SDS011;3219;51.362;7.074;2023-06-14T12:12:09;2.13;;;1.92;;
6372;SDS011;3219;51.362;7.074;2023-06-14T12:14:36;2.17;;;1.63;;
6372;SDS011;3219;51.362;7.074;2023-06-14T12:17:06;2.67;;;2.10;;
6372;SDS011;3219;51.362;7.074;2023-06-14T12:19:33;2.78;;;1.55;;
6372;SDS011;3219;51.362;7.074;2023-06-14T12:22:08;2.08;;;1.40;;
6372;SDS011;3219;51.362;7.074;2023-06-14T12:27:06;1.65;;;1.23;;
6372;SDS011;3219;51.362;7.074;2023-06-14T12:29:34;2.38;;;1.55;;
6372;SDS011;3219;51.362;7.074;2023-06-14T12:32:01;3.55;;;1.33;;
6372;SDS011;3219;51.362;7.074;2023-06-14T12:34:29;3.47;;;1.60;;
6372;SDS011;3219;51.362;7.074;2023-06-14T12:36:56;3.80;;;1.85;;
6372;SDS011;3219;51.362;7.074;2023-06-14T12:39:23;5.45;;;1.52;;
6372;SDS011;3219;51.362;7.074;2023-06-14T12:41:50;3.00;;;2.30;;
6372;SDS011;3219;51.362;7.074;2023-06-14T12:44:18;4.93;;;2.08;;
6372;SDS011;3219;51.362;7.074;2023-06-14T12:46:46;2.35;;;1.98;;
6372;SDS011;3219;51.362;7.074;2023-06-14T12:49:16;3.03;;;2.03;;
6372;SDS011;3219;51.362;7.074;2023-06-14T12:51:45;3.22;;;2.00;;
6372;SDS011;3219;51.362;7.074;2023-06-14T12:54:14;2.20;;;1.98;;
6372;SDS011;3219;51.362;7.074;2023-06-14T12:56:40;2.25;;;2.05;;
6372;SDS011;3219;51.362;7.074;2023-06-14T12:59:08;3.45;;;2.03;;
6372;SDS011;3219;51.362;7.074;2023-06-14T13:01:37;3.65;;;1.55;;
6372;SDS011;3219;51.362;7.074;2023-06-14T13:04:04;2.33;;;1.08;;
6372;SDS011;3219;51.362;7.074;2023-06-14T13:06:31;3.03;;;1.92;;
6372;SDS011;3219;51.362;7.074;2023-06-14T13:08:58;2.65;;;2.05;;
6372;SDS011;3219;51.362;7.074;2023-06-14T13:11:24;3.45;;;2.08;;
6372;SDS011;3219;51.362;7.074;2023-06-14T13:13:51;3.15;;;1.80;;
6372;SDS011;3219;51.362;7.074;2023-06-14T13:16:18;3.05;;;1.63;;
6372;SDS011;3219;51.362;7.074;2023-06-14T13:18:46;3.83;;;1.38;;
6372;SDS011;3219;51.362;7.074;2023-06-14T13:21:13;3.80;;;1.90;;
6372;SDS011;3219;51.362;7.074;2023-06-14T13:23:40;2.00;;;1.80;;
6372;SDS011;3219;51.362;7.074;2023-06-14T13:26:06;2.08;;;1.63;;
6372;SDS011;3219;51.362;7.074;2023-06-14T13:28:33;2.30;;;2.10;;
6372;SDS011;3219;51.362;7.074;2023-06-14T13:31:00;3.25;;;1.88;;
6372;SDS011;3219;51.362;7.074;2023-06-14T13:33:27;3.58;;;1.20;;
6372;SDS011;3219;51.362;7.074;2023-06-14T13:35:55;2.90;;;2.20;;
6372;SDS011;3219;51.362;7.074;2023-06-14T13:38:22;2.22;;;1.83;;
6372;SDS011;3219;51.362;7.074;2023-06-14T13:40:49;2.42;;;1.50;;
6372;SDS011;3219;51.362;7.074;2023-06-14T13:43:15;3.28;;;2.33;;
6372;SDS011;3219;51.362;7.074;2023-06-14T13:45:42;2.42;;;2.22;;
6372;SDS011;3219;51.362;7.074;2023-06-14T13:48:09;4.45;;;2.25;;
6372;SDS011;3219;51.362;7.074;2023-06-14T13:50:36;5.22;;;1.85;;
6372;SDS011;3219;51.362;7.074;2023-06-14T13:53:05;2.28;;;2.08;;
6372;SDS011;3219;51.362;7.074;2023-06-14T13:55:32;4.30;;;1.80;;
6372;SDS011;3219;51.362;7.074;2023-06-14T13:58:00;3.17;;;1.90;;
6372;SDS011;3219;51.362;7.074;2023-06-14T14:00:27;2.47;;;1.45;;
6372;SDS011;3219;51.362;7.074;2023-06-14T14:02:55;2.85;;;2.47;;
6372;SDS011;3219;51.362;7.074;2023-06-14T14:07:54;2.63;;;1.55;;
6372;SDS011;3219;51.362;7.074;2023-06-14T14:10:23;3.22;;;2.28;;
6372;SDS011;3219;51.362;7.074;2023-06-14T14:15:18;2.80;;;2.03;;
6372;SDS011;3219;51.362;7.074;2023-06-14T14:17:44;4.38;;;1.63;;
6372;SDS011;3219;51.362;7.074;2023-06-14T14:20:14;2.88;;;2.25;;
6372;SDS011;3219;51.362;7.074;2023-06-14T14:22:42;3.75;;;1.80;;
6372;SDS011;3219;51.362;7.074;2023-06-14T14:25:08;2.63;;;2.42;;
6372;SDS011;3219;51.362;7.074;2023-06-14T14:27:37;3.33;;;1.70;;
6372;SDS011;3219;51.362;7.074;2023-06-14T14:30:05;2.40;;;2.00;;
6372;SDS011;3219;51.362;7.074;2023-06-14T14:32:32;4.82;;;1.92;;
6372;SDS011;3219;51.362;7.074;2023-06-14T14:34:59;3.00;;;1.75;;
6372;SDS011;3219;51.362;7.074;2023-06-14T14:37:27;4.68;;;2.15;;
6372;SDS011;3219;51.362;7.074;2023-06-14T14:39:54;2.03;;;1.67;;
6372;SDS011;3219;51.362;7.074;2023-06-14T14:42:22;3.03;;;2.17;;
6372;SDS011;3219;51.362;7.074;2023-06-14T14:44:52;2.65;;;1.80;;
6372;SDS011;3219;51.362;7.074;2023-06-14T14:49:48;2.53;;;1.85;;
6372;SDS011;3219;51.362;7.074;2023-06-14T14:52:16;4.13;;;2.33;;
6372;SDS011;3219;51.362;7.074;2023-06-14T14:54:44;2.28;;;1.80;;
6372;SDS011;3219;51.362;7.074;2023-06-14T14:57:11;2.50;;;2.05;;
6372;SDS011;3219;51.362;7.074;2023-06-14T14:59:38;2.40;;;2.20;;
6372;SDS011;3219;51.362;7.074;2023-06-14T15:02:08;2.10;;;1.90;;
6372;SDS011;3219;51.362;7.074;2023-06-14T15:04:36;3.50;;;2.20;;
6372;SDS011;3219;51.362;7.074;2023-06-14T15:07:04;6.03;;;2.60;;
6372;SDS011;3219;51.362;7.074;2023-06-14T15:09:31;3.17;;;2.53;;
6372;SDS011;3219;51.362;7.074;2023-06-14T15:11:59;4.25;;;2.28;;
6372;SDS011;3219;51.362;7.074;2023-06-14T15:14:26;4.53;;;2.83;;
6372;SDS011;3219;51.362;7.074;2023-06-14T15:16:53;3.67;;;1.73;;
6372;SDS011;3219;51.362;7.074;2023-06-14T15:19:24;3.65;;;2.47;;
6372;SDS011;3219;51.362;7.074;2023-06-14T15:21:51;5.13;;;1.88;;
6372;SDS011;3219;51.362;7.074;2023-06-14T15:24:19;5.60;;;2.17;;
6372;SDS011;3219;51.362;7.074;2023-06-14T15:26:46;3.45;;;2.55;;
6372;SDS011;3219;51.362;7.074;2023-06-14T15:29:14;3.88;;;2.10;;
6372;SDS011;3219;51.362;7.074;2023-06-14T15:31:43;7.35;;;2.53;;
6372;SDS011;3219;51.362;7.074;2023-06-14T15:36:41;4.22;;;2.20;;
6372;SDS011;3219;51.362;7.074;2023-06-14T15:39:09;4.95;;;2.05;;
6372;SDS011;3219;51.362;7.074;2023-06-14T15:44:07;3.85;;;2.08;;
6372;SDS011;3219;51.362;7.074;2023-06-14T15:46:36;4.72;;;2.40;;
6372;SDS011;3219;51.362;7.074;2023-06-14T15:49:05;3.58;;;2.67;;
6372;SDS011;3219;51.362;7.074;2023-06-14T15:51:36;2.70;;;2.50;;